createdAt,value
2018-05-11T00:01:03.418Z,72.30
2018-05-11T00:03:31.056Z,72.10
2018-05-11T00:05:58.949Z,72.10
2018-05-11T00:08:26.598Z,72.30
2018-05-11T00:10:54.249Z,72.60
2018-05-11T00:13:21.915Z,72.60
2018-05-11T00:15:49.701Z,72.20
2018-05-11T00:18:17.365Z,72.20
2018-05-11T00:20:44.988Z,72.10
2018-05-11T00:23:12.651Z,71.20
2018-05-11T00:25:40.382Z,70.90
2018-05-11T00:28:08.113Z,71.00
2018-05-11T00:30:35.981Z,71.30
2018-05-11T00:33:03.848Z,71.10
2018-05-11T00:35:31.522Z,71.30
2018-05-11T00:37:59.380Z,71.00
2018-05-11T00:40:27.142Z,70.90
2018-05-11T00:42:54.780Z,70.60
2018-05-11T00:45:22.454Z,71.20
2018-05-11T00:47:50.072Z,71.30
2018-05-11T00:50:18.480Z,71.50
2018-05-11T00:52:46.130Z,71.00
2018-05-11T00:55:26.473Z,70.90
2018-05-11T00:57:54.867Z,71.10
2018-05-11T01:00:23.435Z,71.20
2018-05-11T01:02:52.084Z,71.30
2018-05-11T01:05:19.896Z,71.30
2018-05-11T01:07:48.359Z,71.20
2018-05-11T01:10:16.149Z,71.20
2018-05-11T01:12:43.800Z,70.70
2018-05-11T01:15:12.373Z,71.50
2018-05-11T01:17:41.042Z,71.30
2018-05-11T01:20:08.719Z,71.00
2018-05-11T01:22:36.557Z,71.10
2018-05-11T01:25:04.183Z,70.70
2018-05-11T01:27:32.014Z,70.60
2018-05-11T01:29:59.640Z,70.40
2018-05-11T01:32:27.247Z,70.20
2018-05-11T01:34:55.892Z,70.40
2018-05-11T01:37:23.659Z,70.30
2018-05-11T01:39:51.337Z,70.10
2018-05-11T01:42:19.184Z,70.50
2018-05-11T01:44:46.848Z,71.40
2018-05-11T01:47:14.482Z,70.70
2018-05-11T01:49:42.280Z,70.50
2018-05-11T01:52:09.969Z,71.00
2018-05-11T01:54:37.805Z,70.70
2018-05-11T01:57:05.570Z,70.40
2018-05-11T01:59:33.189Z,70.40
2018-05-11T02:02:01.621Z,70.50
2018-05-11T02:04:29.268Z,70.50
2018-05-11T02:06:57.069Z,69.90
2018-05-11T02:09:24.907Z,70.10
2018-05-11T02:11:52.636Z,70.30
2018-05-11T02:14:20.435Z,70.50
2018-05-11T02:16:48.301Z,70.60
2018-05-11T02:19:16.818Z,70.20
2018-05-11T02:21:45.277Z,70.60
2018-05-11T02:24:12.900Z,70.50
2018-05-11T02:26:40.532Z,70.40
2018-05-11T02:29:09.073Z,69.90
2018-05-11T02:31:36.723Z,69.80
2018-05-11T02:34:04.425Z,70.40
2018-05-11T02:36:32.124Z,70.00
2018-05-11T02:38:59.953Z,69.70
2018-05-11T02:41:28.334Z,69.80
2018-05-11T02:43:56.099Z,69.80
2018-05-11T02:46:23.832Z,69.30
2018-05-11T02:48:51.450Z,69.20
2018-05-11T02:51:20.007Z,69.10
2018-05-11T02:53:48.486Z,69.50
2018-05-11T02:56:16.222Z,69.10
2018-05-11T02:58:43.911Z,68.90
2018-05-11T03:01:12.380Z,69.90
2018-05-11T03:03:40.062Z,69.00
2018-05-11T03:06:07.851Z,68.70
2018-05-11T03:08:36.307Z,69.20
2018-05-11T03:11:04.071Z,69.00
2018-05-11T03:13:31.728Z,69.40
2018-05-11T03:15:59.389Z,68.60
2018-05-11T03:18:27.194Z,68.40
2018-05-11T03:20:55.100Z,68.30
2018-05-11T03:23:22.793Z,68.60
2018-05-11T03:25:50.528Z,68.90
2018-05-11T03:28:18.201Z,68.40
2018-05-11T03:30:46.059Z,68.30
2018-05-11T03:33:13.820Z,68.70
2018-05-11T03:35:41.593Z,68.10
2018-05-11T03:38:09.324Z,68.10
2018-05-11T03:40:37.115Z,68.10
2018-05-11T03:43:04.797Z,68.50
2018-05-11T03:45:32.448Z,67.80
2018-05-11T03:48:00.138Z,66.80
2018-05-11T03:50:27.804Z,66.80
2018-05-11T03:52:55.476Z,67.00
2018-05-11T03:55:24.044Z,66.20
2018-05-11T03:57:51.696Z,66.20
2018-05-11T04:00:20.834Z,65.80
2018-05-11T04:03:00.449Z,65.70
2018-05-11T04:05:39.998Z,65.90
2018-05-11T04:08:20.246Z,66.30
2018-05-11T04:10:48.897Z,67.90
2018-05-11T04:13:16.744Z,67.50
2018-05-11T04:15:44.529Z,67.10
2018-05-11T04:18:12.149Z,67.60
2018-05-11T04:20:40.663Z,66.80
2018-05-11T04:23:09.156Z,66.90
2018-05-11T04:25:36.921Z,67.00
2018-05-11T04:28:04.592Z,67.30
2018-05-11T04:30:32.232Z,67.30
2018-05-11T04:33:00.014Z,67.90
2018-05-11T04:35:27.643Z,67.90
2018-05-11T04:37:55.436Z,68.30
2018-05-11T04:40:23.205Z,69.20
2018-05-11T04:42:51.074Z,68.60
2018-05-11T04:45:18.712Z,68.50
2018-05-11T04:47:46.532Z,69.30
2018-05-11T04:50:14.925Z,69.30
2018-05-11T04:52:43.340Z,68.80
2018-05-11T04:55:10.969Z,68.80
2018-05-11T04:57:39.397Z,69.20
2018-05-11T05:00:07.164Z,69.10
2018-05-11T05:02:34.981Z,69.10
2018-05-11T05:05:03.616Z,69.00
2018-05-11T05:07:31.236Z,68.90
2018-05-11T05:09:59.860Z,69.30
2018-05-11T05:12:27.485Z,69.20
2018-05-11T05:14:55.288Z,69.30
2018-05-11T05:17:22.981Z,69.50
2018-05-11T05:19:50.735Z,68.90
2018-05-11T05:22:18.377Z,69.10
2018-05-11T05:24:46.074Z,68.40
2018-05-11T05:27:13.735Z,68.40
2018-05-11T05:29:41.574Z,68.50
2018-05-11T05:32:09.237Z,69.10
2018-05-11T05:34:36.851Z,68.20
2018-05-11T05:37:04.558Z,68.40
2018-05-11T05:39:32.183Z,67.70
2018-05-11T05:41:59.898Z,68.90
2018-05-11T05:44:27.525Z,68.70
2018-05-11T05:46:55.412Z,68.00
2018-05-11T05:49:23.211Z,67.70
2018-05-11T05:51:51.042Z,67.50
2018-05-11T05:54:18.723Z,66.90
2018-05-11T05:56:46.370Z,67.90
2018-05-11T05:59:14.237Z,68.10
2018-05-11T06:01:42.035Z,67.80
2018-05-11T06:04:10.881Z,67.50
2018-05-11T06:06:39.330Z,68.30
2018-05-11T06:09:07.146Z,68.60
2018-05-11T06:11:34.822Z,68.00
2018-05-11T06:14:02.458Z,67.60
2018-05-11T06:16:30.124Z,67.50
2018-05-11T06:18:57.889Z,67.70
2018-05-11T06:21:25.685Z,67.80
2018-05-11T06:23:53.320Z,68.50
2018-05-11T06:26:20.983Z,68.60
2018-05-11T06:28:48.743Z,68.10
2018-05-11T06:31:16.436Z,67.90
2018-05-11T06:33:44.273Z,67.70
2018-05-11T06:36:11.889Z,67.60
2018-05-11T06:38:40.312Z,67.30
2018-05-11T06:41:07.925Z,67.30
2018-05-11T06:43:36.492Z,66.30
2018-05-11T06:46:05.280Z,66.30
2018-05-11T06:48:33.239Z,66.10
2018-05-11T06:51:01.087Z,66.30
2018-05-11T06:53:28.884Z,66.40
2018-05-11T06:55:57.435Z,66.40
2018-05-11T06:58:25.080Z,66.40
2018-05-11T07:00:52.696Z,65.30
2018-05-11T07:03:20.522Z,64.80
2018-05-11T07:05:48.131Z,64.40
2018-05-11T07:08:16.505Z,61.80
2018-05-11T07:10:45.052Z,61.20
2018-05-11T07:13:13.639Z,61.20
2018-05-11T07:15:41.308Z,60.90
2018-05-11T07:18:08.943Z,61.00
2018-05-11T07:20:36.596Z,60.90
2018-05-11T07:23:04.311Z,61.90
2018-05-11T07:25:32.153Z,61.90
2018-05-11T07:27:59.818Z,62.50
2018-05-11T07:30:29.151Z,61.40
2018-05-11T07:32:57.726Z,62.30
2018-05-11T07:35:25.412Z,62.10
2018-05-11T07:37:53.837Z,60.90
2018-05-11T07:40:21.510Z,61.30
2018-05-11T07:42:49.268Z,61.10
2018-05-11T07:45:17.035Z,61.10
2018-05-11T07:47:44.894Z,62.30
2018-05-11T07:50:12.513Z,61.30
2018-05-11T07:52:40.921Z,62.20
2018-05-11T07:55:08.641Z,62.30
2018-05-11T07:57:36.369Z,62.10
2018-05-11T08:00:04.076Z,61.90
2018-05-11T08:02:32.512Z,61.70
2018-05-11T08:05:00.169Z,61.60
2018-05-11T08:07:27.861Z,62.60
2018-05-11T08:09:56.428Z,61.90
2018-05-11T08:12:24.170Z,61.90
2018-05-11T08:14:51.881Z,61.70
2018-05-11T08:17:20.427Z,61.40
2018-05-11T08:19:48.164Z,61.20
2018-05-11T08:22:15.812Z,61.10
2018-05-11T08:24:44.188Z,60.00
2018-05-11T08:27:12.628Z,59.80
2018-05-11T08:29:40.379Z,59.80
2018-05-11T08:32:08.032Z,60.20
2018-05-11T08:34:35.805Z,59.80
2018-05-11T08:37:03.505Z,60.20
2018-05-11T08:39:32.053Z,59.70
2018-05-11T08:41:59.752Z,59.60
2018-05-11T08:44:27.513Z,58.70
2018-05-11T08:46:55.964Z,59.80
2018-05-11T08:49:23.740Z,59.80
2018-05-11T08:51:51.481Z,59.70
2018-05-11T08:54:19.186Z,59.70
2018-05-11T08:56:48.381Z,59.20
2018-05-11T08:59:17.660Z,59.80
2018-05-11T09:01:45.420Z,59.80
2018-05-11T09:04:13.288Z,59.90
2018-05-11T09:06:40.971Z,59.40
2018-05-11T09:09:08.636Z,60.70
2018-05-11T09:11:36.294Z,60.70
2018-05-11T09:14:03.920Z,61.40
2018-05-11T09:16:31.598Z,61.40
2018-05-11T09:18:59.283Z,61.00
2018-05-11T09:21:27.064Z,60.10
2018-05-11T09:23:54.727Z,60.50
2018-05-11T09:26:22.454Z,59.50
2018-05-11T09:28:50.320Z,60.90
2018-05-11T09:31:18.188Z,59.80
2018-05-11T09:33:45.952Z,59.50
2018-05-11T09:36:13.649Z,59.40
2018-05-11T09:38:41.379Z,59.80
2018-05-11T09:41:09.078Z,59.30
2018-05-11T09:43:37.557Z,59.80
2018-05-11T09:46:06.211Z,59.10
2018-05-11T09:48:33.869Z,59.30
2018-05-11T09:51:01.516Z,59.90
2018-05-11T09:53:29.230Z,59.40
2018-05-11T09:55:57.822Z,61.00
2018-05-11T09:58:26.220Z,60.60
2018-05-11T10:00:54.752Z,60.70
2018-05-11T10:03:23.869Z,60.20
2018-05-11T10:05:51.488Z,60.20
2018-05-11T10:08:19.140Z,60.00
2018-05-11T10:10:46.806Z,60.00
2018-05-11T10:13:14.431Z,60.30
2018-05-11T10:15:42.881Z,59.20
2018-05-11T10:18:10.661Z,59.00
2018-05-11T10:20:38.310Z,59.40
2018-05-11T10:23:06.164Z,59.50
2018-05-11T10:25:34.031Z,59.80
2018-05-11T10:28:01.896Z,60.10
2018-05-11T10:30:29.562Z,59.60
2018-05-11T10:32:57.426Z,60.00
2018-05-11T10:35:25.118Z,59.80
2018-05-11T10:37:52.958Z,59.20
2018-05-11T10:40:20.568Z,60.00
2018-05-11T10:42:48.960Z,59.80
2018-05-11T10:45:16.619Z,59.80
2018-05-11T10:47:44.997Z,58.80
2018-05-11T10:50:13.360Z,59.40
2018-05-11T10:52:41.777Z,59.00
2018-05-11T10:55:09.491Z,59.00
2018-05-11T10:57:37.114Z,59.10
2018-05-11T11:00:04.886Z,59.80
2018-05-11T11:02:32.654Z,59.20
2018-05-11T11:05:00.381Z,59.10
2018-05-11T11:07:28.071Z,59.30
2018-05-11T11:09:55.944Z,59.20
2018-05-11T11:12:23.599Z,59.00
2018-05-11T11:14:51.271Z,59.30
2018-05-11T11:17:19.034Z,59.40
2018-05-11T11:19:46.653Z,58.50
2018-05-11T11:22:15.118Z,58.50
2018-05-11T11:24:43.589Z,57.80
2018-05-11T11:27:12.054Z,57.90
2018-05-11T11:29:39.917Z,57.20
2018-05-11T11:32:07.544Z,57.50
2018-05-11T11:34:35.389Z,58.00
2018-05-11T11:37:03.848Z,58.20
2018-05-11T11:39:33.013Z,57.70
2018-05-11T11:42:00.949Z,58.30
2018-05-11T11:44:29.375Z,58.40
2018-05-11T11:46:57.128Z,58.40
2018-05-11T11:49:24.779Z,58.30
2018-05-11T11:51:52.455Z,58.30
2018-05-11T11:54:20.092Z,58.20
2018-05-11T11:56:47.766Z,58.60
2018-05-11T11:59:15.476Z,57.80
2018-05-11T12:01:43.883Z,57.90
2018-05-11T12:04:11.693Z,57.50
2018-05-11T12:06:39.377Z,57.60
2018-05-11T12:09:07.143Z,57.50
2018-05-11T12:11:34.978Z,57.40
2018-05-11T12:14:02.850Z,56.60
2018-05-11T12:16:30.612Z,57.00
2018-05-11T12:18:58.377Z,56.90
2018-05-11T12:21:26.006Z,56.80
2018-05-11T12:23:53.616Z,57.00
2018-05-11T12:26:21.328Z,56.80
2018-05-11T12:28:49.769Z,56.40
2018-05-11T12:31:18.320Z,56.40
2018-05-11T12:33:46.015Z,55.70
2018-05-11T12:36:13.780Z,56.60
2018-05-11T12:38:41.445Z,56.00
2018-05-11T12:41:09.119Z,56.00
2018-05-11T12:43:37.524Z,57.10
2018-05-11T12:46:05.330Z,57.10
2018-05-11T12:48:33.089Z,57.10
2018-05-11T12:51:00.707Z,57.50
2018-05-11T12:53:29.156Z,58.10
2018-05-11T12:55:56.895Z,58.10
2018-05-11T12:58:24.661Z,58.00
2018-05-11T13:00:52.529Z,58.30
2018-05-11T13:03:20.157Z,57.80
2018-05-11T13:05:48.569Z,57.40
2018-05-11T13:08:16.364Z,57.50
2018-05-11T13:10:44.101Z,57.30
2018-05-11T13:13:11.966Z,57.90
2018-05-11T13:15:39.610Z,58.20
2018-05-11T13:18:07.256Z,58.40
2018-05-11T13:20:34.967Z,58.70
2018-05-11T13:23:02.564Z,59.60
2018-05-11T13:25:30.951Z,59.20
2018-05-11T13:27:59.372Z,59.40
2018-05-11T13:30:27.070Z,59.30
2018-05-11T13:32:54.695Z,58.60
2018-05-11T13:35:22.343Z,57.80
2018-05-11T13:37:50.088Z,58.70
2018-05-11T13:40:17.840Z,59.00
2018-05-11T13:42:45.532Z,58.20
2018-05-11T13:45:13.247Z,58.40
2018-05-11T13:47:41.831Z,58.30
2018-05-11T13:50:09.570Z,58.50
2018-05-11T13:52:37.285Z,58.60
2018-05-11T13:55:06.714Z,58.60
2018-05-11T13:57:34.375Z,58.50
2018-05-11T14:00:02.092Z,58.80
2018-05-11T14:02:29.737Z,58.70
2018-05-11T14:04:57.591Z,59.60
2018-05-11T14:07:25.261Z,59.20
2018-05-11T14:09:53.770Z,59.50
2018-05-11T14:12:22.522Z,59.50
2018-05-11T14:14:50.925Z,59.40
2018-05-11T14:17:18.691Z,59.30
2018-05-11T14:19:46.365Z,59.00
2018-05-11T14:22:14.091Z,59.10
2018-05-11T14:24:41.751Z,59.00
2018-05-11T14:27:09.625Z,59.10
2018-05-11T14:29:37.382Z,59.10
2018-05-11T14:32:05.903Z,59.50
2018-05-11T14:34:35.117Z,59.80
2018-05-11T14:37:03.546Z,59.50
2018-05-11T14:39:31.209Z,59.40
2018-05-11T14:41:59.824Z,59.80
2018-05-11T14:44:27.545Z,60.00
2018-05-11T14:46:55.222Z,60.10
2018-05-11T14:49:22.914Z,60.00
2018-05-11T14:51:50.603Z,60.00
2018-05-11T14:54:19.250Z,60.40
2018-05-11T14:56:47.029Z,60.30
2018-05-11T14:59:15.436Z,60.10
2018-05-11T15:01:44.624Z,59.90
2018-05-11T15:04:13.131Z,60.10
2018-05-11T15:06:41.681Z,59.90
2018-05-11T15:09:10.073Z,59.90
2018-05-11T15:11:38.709Z,59.80
2018-05-11T15:14:06.509Z,59.70
2018-05-11T15:16:34.145Z,59.50
2018-05-11T15:19:02.821Z,60.00
2018-05-11T15:21:30.587Z,60.30
2018-05-11T15:26:32.261Z,60.50
2018-05-11T15:29:00.024Z,60.20
2018-05-11T15:31:27.719Z,60.60
2018-05-11T15:33:55.342Z,60.40
2018-05-11T15:36:22.993Z,61.10
2018-05-11T15:38:50.605Z,61.10
2018-05-11T15:41:18.264Z,61.30
2018-05-11T15:43:45.926Z,60.80
2018-05-11T15:46:13.557Z,60.60
2018-05-11T15:48:41.199Z,61.10
2018-05-11T15:51:08.983Z,60.70
2018-05-11T15:53:36.646Z,60.70
2018-05-11T15:56:04.303Z,60.50
2018-05-11T15:58:31.969Z,60.60
2018-05-11T16:00:59.660Z,60.50
2018-05-11T16:03:27.401Z,60.70
2018-05-11T16:05:55.119Z,60.60
2018-05-11T16:08:23.585Z,60.90
2018-05-11T16:10:52.015Z,60.40
2018-05-11T16:13:19.634Z,60.30
2018-05-11T16:15:48.093Z,60.20
2018-05-11T16:18:15.829Z,60.20
2018-05-11T16:20:43.448Z,60.70
2018-05-11T16:23:11.870Z,60.70
2018-05-11T16:25:39.741Z,60.70
2018-05-11T16:28:07.514Z,60.90
2018-05-11T16:30:35.268Z,61.00
2018-05-11T16:33:03.068Z,61.40
2018-05-11T16:35:30.812Z,61.30
2018-05-11T16:37:58.437Z,60.60
2018-05-11T16:40:26.157Z,61.70
2018-05-11T16:42:53.745Z,61.50
2018-05-11T16:45:22.193Z,60.90
2018-05-11T16:47:49.848Z,60.90
2018-05-11T16:50:17.459Z,61.10
2018-05-11T16:52:45.139Z,61.50
2018-05-11T16:55:12.841Z,61.50
2018-05-11T16:57:40.573Z,61.70
2018-05-11T17:00:08.343Z,61.50
2018-05-11T17:02:35.968Z,61.10
2018-05-11T17:05:04.591Z,61.10
2018-05-11T17:07:32.284Z,61.00
2018-05-11T17:09:59.958Z,61.30
2018-05-11T17:12:28.498Z,61.50
2018-05-11T17:14:56.115Z,61.40
2018-05-11T17:17:24.648Z,61.70
2018-05-11T17:19:52.462Z,61.60
2018-05-11T17:22:21.010Z,61.80
2018-05-11T17:24:48.623Z,61.80
2018-05-11T17:27:16.278Z,62.00
2018-05-11T17:29:44.116Z,62.20
2018-05-11T17:32:11.875Z,62.00
2018-05-11T17:34:39.593Z,62.50
2018-05-11T17:37:07.216Z,62.50
2018-05-11T17:39:35.654Z,63.10
2018-05-11T17:42:03.418Z,62.70
2018-05-11T17:44:31.038Z,63.20
2018-05-11T17:46:59.466Z,63.60
2018-05-11T17:49:27.225Z,63.50
2018-05-11T17:51:54.905Z,63.90
2018-05-11T17:54:22.686Z,63.80
2018-05-11T17:56:50.421Z,64.40
2018-05-11T17:59:18.180Z,64.70
2018-05-11T18:01:45.869Z,64.60
2018-05-11T18:04:13.545Z,64.90
2018-05-11T18:06:42.515Z,65.00
2018-05-11T18:09:10.393Z,65.00
2018-05-11T18:11:38.107Z,65.50
2018-05-11T18:14:06.625Z,65.70
2018-05-11T18:16:34.324Z,65.60
2018-05-11T18:19:02.769Z,65.90
2018-05-11T18:21:30.630Z,65.80
2018-05-11T18:23:58.254Z,65.60
2018-05-11T18:26:25.926Z,65.20
2018-05-11T18:28:53.577Z,65.30
2018-05-11T18:31:21.248Z,65.80
2018-05-11T18:33:48.909Z,66.30
2018-05-11T18:36:16.600Z,66.60
2018-05-11T18:38:44.241Z,67.20
2018-05-11T18:41:11.952Z,67.00
2018-05-11T18:43:40.380Z,67.20
2018-05-11T18:46:08.032Z,67.20
2018-05-11T18:48:36.478Z,67.70
2018-05-11T18:51:04.163Z,67.70
2018-05-11T18:53:33.026Z,68.30
2018-05-11T18:56:00.493Z,68.20
2018-05-11T18:58:28.254Z,68.30
2018-05-11T19:00:56.808Z,70.60
2018-05-11T19:03:24.674Z,70.00
2018-05-11T19:05:52.321Z,71.00
2018-05-11T19:08:20.085Z,70.40
2018-05-11T19:10:47.753Z,71.50
2018-05-11T19:13:15.402Z,70.40
2018-05-11T19:15:43.193Z,71.70
2018-05-11T19:18:11.068Z,70.40
2018-05-11T19:20:38.825Z,70.70
2018-05-11T19:23:06.514Z,71.20
2018-05-11T19:25:34.139Z,71.70
2018-05-11T19:28:01.954Z,72.30
2018-05-11T19:30:30.373Z,71.20
2018-05-11T19:32:58.031Z,71.10
2018-05-11T19:35:25.641Z,71.50
2018-05-11T19:37:53.485Z,71.30
2018-05-11T19:40:21.209Z,71.40
2018-05-11T19:42:48.909Z,71.40
2018-05-11T19:45:16.686Z,71.30
2018-05-11T19:47:44.836Z,71.10
2018-05-11T19:50:12.924Z,70.90
2018-05-11T19:52:40.892Z,70.80
2018-05-11T19:55:08.919Z,70.90
2018-05-11T19:57:36.875Z,71.40
2018-05-11T20:00:05.685Z,71.60
2018-05-11T20:02:33.623Z,71.60
2018-05-11T20:05:02.731Z,72.10
2018-05-11T20:07:31.266Z,71.90
2018-05-11T20:09:59.356Z,71.80
2018-05-11T20:12:27.364Z,72.80
2018-05-11T20:14:56.145Z,72.70
2018-05-11T20:17:24.071Z,72.60
2018-05-11T20:19:52.284Z,72.50
2018-05-11T20:22:20.379Z,73.30
2018-05-11T20:24:48.351Z,72.40
2018-05-11T20:27:16.804Z,72.30
2018-05-11T20:29:44.532Z,72.60
2018-05-11T20:32:12.399Z,72.70
2018-05-11T20:34:40.062Z,73.10
2018-05-11T20:37:07.824Z,72.60
2018-05-11T20:39:35.578Z,72.50
2018-05-11T20:42:03.209Z,73.80
2018-05-11T20:44:31.611Z,73.00
2018-05-11T20:46:59.330Z,73.00
2018-05-11T20:49:27.810Z,71.80
2018-05-11T20:51:55.472Z,71.70
2018-05-11T20:54:23.727Z,71.60
2018-05-11T20:56:51.419Z,71.80
2018-05-11T20:59:19.832Z,72.30
2018-05-11T21:01:47.505Z,71.80
2018-05-11T21:04:15.238Z,72.00
2018-05-11T21:06:43.869Z,71.70
2018-05-11T21:09:11.540Z,71.70
2018-05-11T21:11:39.301Z,72.00
2018-05-11T21:14:07.164Z,72.10
2018-05-11T21:16:34.820Z,71.90
2018-05-11T21:19:02.525Z,72.50
2018-05-11T21:21:31.007Z,72.90
2018-05-11T21:23:59.488Z,72.40
2018-05-11T21:26:27.889Z,72.90
2018-05-11T21:28:56.342Z,72.60
2018-05-11T21:31:24.111Z,72.40
2018-05-11T21:33:51.804Z,72.50
2018-05-11T21:36:20.184Z,72.40
2018-05-11T21:38:48.703Z,72.70
2018-05-11T21:41:16.406Z,72.70
2018-05-11T21:43:44.846Z,72.20
2018-05-11T21:46:12.498Z,72.20
2018-05-11T21:48:40.264Z,72.40
2018-05-11T21:51:08.075Z,72.70
2018-05-11T21:53:36.555Z,74.50
2018-05-11T21:56:04.235Z,73.70
2018-05-11T21:58:32.665Z,74.00
2018-05-11T22:01:00.309Z,73.90
2018-05-11T22:03:27.952Z,74.00
2018-05-11T22:05:55.658Z,74.30
2018-05-11T22:08:23.363Z,74.20
2018-05-11T22:10:51.751Z,74.30
2018-05-11T22:13:20.139Z,74.00
2018-05-11T22:15:48.693Z,74.10
2018-05-11T22:18:17.345Z,74.50
2018-05-11T22:20:45.011Z,74.00
2018-05-11T22:23:12.873Z,74.60
2018-05-11T22:25:40.569Z,74.90
2018-05-11T22:28:08.229Z,75.10
2018-05-11T22:30:35.886Z,75.50
2018-05-11T22:33:03.496Z,75.80
2018-05-11T22:35:31.388Z,75.40
2018-05-11T22:37:59.160Z,75.60
2018-05-11T22:40:26.918Z,75.30
2018-05-11T22:42:54.700Z,75.40
2018-05-11T22:45:22.485Z,74.60
2018-05-11T22:47:50.108Z,74.20
2018-05-11T22:50:17.756Z,74.30
2018-05-11T22:52:45.464Z,74.50
2018-05-11T22:55:13.111Z,75.00
2018-05-11T22:57:40.964Z,75.10
2018-05-11T23:00:08.729Z,75.60
2018-05-11T23:02:36.397Z,75.20
2018-05-11T23:05:04.090Z,75.30
2018-05-11T23:07:31.719Z,75.30
2018-05-11T23:09:59.487Z,75.60
2018-05-11T23:12:27.141Z,75.60
2018-05-11T23:14:54.908Z,75.90
2018-05-11T23:17:22.775Z,76.20
2018-05-11T23:19:50.396Z,76.00
2018-05-11T23:22:18.919Z,76.80
2018-05-11T23:24:46.541Z,76.80
2018-05-11T23:27:15.065Z,76.50
2018-05-11T23:29:42.711Z,76.50
2018-05-11T23:32:10.361Z,76.90
2018-05-11T23:34:38.259Z,76.60
2018-05-11T23:37:06.020Z,76.50
2018-05-11T23:39:33.647Z,76.30
2018-05-11T23:42:02.206Z,76.40
2018-05-11T23:44:29.867Z,76.40
2018-05-11T23:46:58.413Z,76.70
2018-05-11T23:49:26.179Z,76.70
2018-05-11T23:51:53.892Z,77.50
2018-05-11T23:54:22.278Z,77.60
2018-05-11T23:56:50.804Z,77.50
2018-05-11T23:59:18.493Z,77.50
